IDs: Format: Raw Decoded Include TAF

Data at: 0755 UTC 24 Mar 2018

METAR for:KLUK (Cincinnati/Lunken Ar, OH, US)
Text:KLUK 240653Z AUTO 03004KT 10SM CLR M02/M04 A3025 RMK AO2 SLP246 T10221039
Temperature: -2.2°C ( 28°F)
Dewpoint: -3.9°C ( 25°F) [RH = 88%]
Pressure (altimeter):30.25 inches Hg (1024.5 mb) [Sea level pressure: 1024.6 mb]
Winds:from the NNE (30 degrees) at 5 MPH (4 knots; 2.1 m/s)
Visibility:10 or more sm (16+ km)
Ceiling:at least 12,000 feet AGL
Clouds:sky clear below 12,000 feet AGL
QC Flag:automated observation with no human augmentation